createdAt,value
2022-12-24T00:01:23.579Z,33.47
2022-12-24T00:03:51.971Z,31.63
2022-12-24T00:06:22.081Z,32.00
2022-12-24T00:08:51.174Z,30.93
2022-12-24T00:11:19.466Z,37.37
2022-12-24T00:13:47.925Z,33.47
2022-12-24T00:16:16.137Z,35.50
2022-12-24T00:18:46.998Z,32.33
2022-12-24T00:21:16.254Z,32.20
2022-12-24T00:23:44.913Z,32.27
2022-12-24T00:26:13.455Z,33.80
2022-12-24T00:28:41.768Z,35.27
2022-12-24T00:31:12.503Z,35.93
2022-12-24T00:33:40.954Z,35.80
2022-12-24T00:36:10.811Z,38.10
2022-12-24T00:38:38.995Z,39.33
2022-12-24T00:41:24.465Z,40.00
2022-12-24T00:43:54.118Z,41.00
2022-12-24T00:46:22.833Z,42.67
2022-12-24T00:48:51.138Z,44.90
2022-12-24T00:51:21.100Z,43.33
2022-12-24T00:53:49.760Z,44.67
2022-12-24T00:56:17.843Z,47.13
2022-12-24T00:58:46.023Z,46.37
2022-12-24T01:01:14.239Z,44.37
2022-12-24T01:03:48.633Z,46.20
2022-12-24T01:06:18.576Z,52.97
2022-12-24T01:08:51.776Z,53.80
2022-12-24T01:11:20.009Z,53.33
2022-12-24T01:13:48.137Z,53.40
2022-12-24T01:16:18.615Z,55.73
2022-12-24T01:18:47.188Z,57.97
2022-12-24T01:21:16.137Z,58.23
2022-12-24T01:23:44.706Z,57.43
2022-12-24T01:26:14.205Z,56.73
2022-12-24T01:28:42.757Z,59.47
2022-12-24T01:31:15.559Z,58.73
2022-12-24T01:33:44.260Z,57.53
2022-12-24T01:36:12.625Z,56.57
2022-12-24T01:38:41.190Z,54.43
2022-12-24T01:41:32.427Z,56.43
2022-12-24T01:44:20.335Z,54.03
2022-12-24T01:46:50.016Z,54.37
2022-12-24T01:49:19.238Z,51.83
2022-12-24T01:51:52.413Z,52.40
2022-12-24T01:54:25.190Z,55.80
2022-12-24T01:56:57.174Z,57.17
2022-12-24T01:59:27.062Z,45.67
2022-12-24T02:01:55.814Z,47.93
2022-12-24T02:04:34.068Z,52.37
2022-12-24T02:07:02.432Z,57.93
2022-12-24T02:09:31.075Z,57.60
2022-12-24T02:11:59.397Z,52.27
2022-12-24T02:14:32.386Z,55.37
2022-12-24T02:17:11.143Z,53.80
2022-12-24T02:20:26.540Z,50.53
2022-12-24T02:23:25.938Z,46.40
2022-12-24T02:26:18.202Z,51.30
2022-12-24T02:29:08.315Z,48.13
2022-12-24T02:31:42.350Z,48.57
2022-12-24T02:34:16.636Z,48.83
2022-12-24T02:36:50.675Z,52.10
2022-12-24T02:39:23.863Z,53.67
2022-12-24T02:42:07.450Z,55.63
2022-12-24T02:44:42.438Z,57.30
2022-12-24T02:47:13.654Z,51.93
2022-12-24T02:49:46.948Z,52.90
2022-12-24T02:52:30.092Z,56.30
2022-12-24T02:55:00.162Z,51.70
2022-12-24T02:57:42.902Z,54.00
2022-12-24T03:00:14.459Z,54.43
2022-12-24T03:02:58.176Z,53.63
2022-12-24T03:05:34.495Z,54.10
2022-12-24T03:08:08.480Z,53.83
2022-12-24T03:10:46.882Z,56.10
2022-12-24T03:13:17.540Z,56.80
2022-12-24T03:15:48.075Z,54.87
2022-12-24T03:18:21.235Z,56.60
2022-12-24T03:20:53.954Z,58.57
2022-12-24T03:23:22.291Z,50.37
2022-12-24T03:25:51.268Z,50.70
2022-12-24T03:28:21.203Z,46.60
2022-12-24T03:30:49.889Z,54.07
2022-12-24T03:33:19.560Z,54.47
2022-12-24T03:35:48.045Z,87.53
2022-12-24T03:38:16.184Z,84.83
2022-12-24T03:40:44.271Z,49.37
2022-12-24T03:43:12.359Z,46.07
2022-12-24T03:45:40.637Z,50.40
2022-12-24T03:48:08.830Z,55.10
2022-12-24T03:50:38.255Z,54.67
2022-12-24T03:53:06.336Z,50.57
2022-12-24T03:55:34.501Z,53.63
2022-12-24T03:58:02.552Z,60.10
2022-12-24T04:00:30.740Z,66.17
2022-12-24T04:02:58.849Z,62.37
2022-12-24T04:05:27.057Z,55.90
2022-12-24T04:07:56.563Z,74.97
2022-12-24T04:10:24.843Z,68.13
2022-12-24T04:12:52.864Z,62.13
2022-12-24T04:15:21.148Z,59.23
2022-12-24T04:17:49.194Z,60.23
2022-12-24T04:20:17.429Z,60.37
2022-12-24T04:22:45.491Z,60.67
2022-12-24T04:25:14.978Z,61.80
2022-12-24T04:27:43.049Z,61.77
2022-12-24T04:30:11.776Z,59.00
2022-12-24T04:32:39.821Z,57.77
2022-12-24T04:35:08.614Z,55.87
2022-12-24T04:37:36.713Z,55.10
2022-12-24T04:40:05.217Z,56.17
2022-12-24T04:42:34.734Z,54.73
2022-12-24T04:45:02.804Z,56.67
2022-12-24T04:47:30.865Z,53.83
2022-12-24T04:49:59.364Z,55.77
2022-12-24T04:52:27.487Z,52.40
2022-12-24T04:54:55.643Z,47.63
2022-12-24T04:57:23.723Z,50.83
2022-12-24T04:59:53.339Z,47.90
2022-12-24T05:02:22.227Z,49.83
2022-12-24T05:04:50.364Z,51.13
2022-12-24T05:07:18.609Z,52.53
2022-12-24T05:09:46.737Z,52.80
2022-12-24T05:12:14.800Z,53.43
2022-12-24T05:14:43.126Z,52.17
2022-12-24T05:17:12.677Z,54.63
2022-12-24T05:19:40.800Z,56.33
2022-12-24T05:22:26.328Z,57.43
2022-12-24T05:25:11.916Z,57.57
2022-12-24T05:27:40.006Z,58.00
2022-12-24T05:30:09.599Z,57.47
2022-12-24T05:32:39.053Z,57.17
2022-12-24T05:35:07.480Z,55.37
2022-12-24T05:37:35.612Z,56.93
2022-12-24T05:40:03.669Z,56.90
2022-12-24T05:42:31.745Z,57.90
2022-12-24T05:44:59.814Z,58.53
2022-12-24T05:47:28.042Z,58.73
2022-12-24T05:49:57.527Z,57.33
2022-12-24T05:52:25.815Z,57.40
2022-12-24T05:54:53.973Z,57.37
2022-12-24T05:57:22.053Z,55.97
2022-12-24T05:59:50.125Z,56.47
2022-12-24T06:02:18.285Z,57.47
2022-12-24T06:04:46.455Z,58.10
2022-12-24T06:07:16.059Z,58.33
2022-12-24T06:09:44.281Z,58.50
2022-12-24T06:12:12.362Z,59.73
2022-12-24T06:14:40.449Z,59.30
2022-12-24T06:17:08.680Z,59.47
2022-12-24T06:19:36.746Z,58.43
2022-12-24T06:22:04.809Z,58.27
2022-12-24T06:24:34.266Z,57.97
2022-12-24T06:27:02.413Z,60.13
2022-12-24T06:29:30.473Z,58.73
2022-12-24T06:31:58.648Z,59.27
2022-12-24T06:34:26.890Z,58.10
2022-12-24T06:36:54.971Z,58.97
2022-12-24T06:39:23.106Z,59.43
2022-12-24T06:41:52.628Z,60.47
2022-12-24T06:44:20.736Z,60.17
2022-12-24T06:46:48.903Z,61.17
2022-12-24T06:49:17.124Z,60.33
2022-12-24T06:51:45.231Z,59.87
2022-12-24T06:54:13.323Z,60.50
2022-12-24T06:56:41.416Z,59.43
2022-12-24T06:59:10.857Z,59.27
2022-12-24T07:01:42.906Z,59.83
2022-12-24T07:04:20.134Z,59.60
2022-12-24T07:06:48.906Z,58.07
2022-12-24T07:09:16.970Z,59.27
2022-12-24T07:11:45.739Z,60.50
2022-12-24T07:14:15.254Z,57.53
2022-12-24T07:16:43.474Z,57.77
2022-12-24T07:19:12.235Z,56.67
2022-12-24T07:21:40.230Z,55.80
2022-12-24T07:24:08.769Z,54.73
2022-12-24T07:26:36.861Z,55.00
2022-12-24T07:29:06.111Z,56.37
2022-12-24T07:31:35.742Z,58.63
2022-12-24T07:34:03.956Z,57.60
2022-12-24T07:36:32.125Z,57.63
2022-12-24T07:39:00.351Z,58.13
2022-12-24T07:41:28.431Z,57.53
2022-12-24T07:43:56.767Z,57.67
2022-12-24T07:46:24.928Z,57.23
2022-12-24T07:48:54.424Z,59.23
2022-12-24T07:51:22.516Z,59.47
2022-12-24T07:53:50.600Z,58.97
2022-12-24T07:56:18.752Z,57.83
2022-12-24T07:58:46.911Z,57.50
2022-12-24T08:01:15.018Z,59.03
2022-12-24T08:03:43.310Z,60.77
2022-12-24T08:06:13.281Z,60.53
2022-12-24T08:08:41.452Z,58.40
2022-12-24T08:11:09.625Z,59.27
2022-12-24T08:13:37.667Z,57.10
2022-12-24T08:16:06.314Z,55.57
2022-12-24T08:18:35.130Z,53.57
2022-12-24T08:21:03.196Z,52.37
2022-12-24T08:23:32.740Z,52.27
2022-12-24T08:26:00.845Z,51.40
2022-12-24T08:28:28.996Z,50.37
2022-12-24T08:30:57.166Z,49.63
2022-12-24T08:33:25.221Z,48.73
2022-12-24T08:35:54.924Z,46.47
2022-12-24T08:38:23.578Z,45.53
2022-12-24T08:40:54.393Z,43.27
2022-12-24T08:43:23.004Z,42.50
2022-12-24T08:45:51.687Z,40.57
2022-12-24T08:48:20.000Z,38.63
2022-12-24T08:50:48.359Z,36.80
2022-12-24T08:53:16.459Z,35.93
2022-12-24T08:55:46.682Z,35.27
2022-12-24T08:58:18.485Z,34.97
2022-12-24T09:00:46.610Z,34.93
2022-12-24T09:03:18.504Z,33.77
2022-12-24T09:05:53.605Z,32.80
2022-12-24T09:08:22.264Z,32.83
2022-12-24T09:10:50.441Z,31.67
2022-12-24T09:13:19.913Z,31.20
2022-12-24T09:15:54.674Z,30.40
2022-12-24T09:18:22.940Z,28.67
2022-12-24T09:20:56.831Z,28.10
2022-12-24T09:23:25.401Z,28.63
2022-12-24T09:25:53.483Z,26.80
2022-12-24T09:28:23.476Z,26.53
2022-12-24T09:30:59.742Z,25.43
2022-12-24T09:33:28.450Z,25.30
2022-12-24T09:35:56.588Z,24.87
2022-12-24T09:38:25.164Z,23.93
2022-12-24T09:40:55.705Z,23.00
2022-12-24T09:43:27.484Z,22.80
2022-12-24T09:46:07.711Z,22.57
2022-12-24T09:48:40.524Z,22.87
2022-12-24T09:51:11.033Z,22.50
2022-12-24T09:53:44.021Z,22.77
2022-12-24T09:56:17.083Z,23.23
2022-12-24T09:58:49.708Z,23.73
2022-12-24T10:01:19.337Z,23.13
2022-12-24T10:03:47.784Z,23.77
2022-12-24T10:06:23.623Z,23.10
2022-12-24T10:09:09.399Z,23.33
2022-12-24T10:11:44.773Z,23.60
2022-12-24T10:14:27.514Z,23.20
2022-12-24T10:17:03.362Z,23.87
2022-12-24T10:19:46.417Z,23.93
2022-12-24T10:22:25.341Z,24.57
2022-12-24T10:25:03.440Z,25.50
2022-12-24T10:27:36.363Z,26.27
2022-12-24T10:30:17.518Z,28.10
2022-12-24T10:32:46.606Z,28.97
2022-12-24T10:35:23.446Z,30.37
2022-12-24T10:37:52.884Z,30.63
2022-12-24T10:40:36.144Z,31.40
2022-12-24T10:43:15.003Z,31.53
2022-12-24T10:45:49.850Z,32.53
2022-12-24T10:48:25.929Z,31.30
2022-12-24T10:50:59.661Z,31.87
2022-12-24T10:53:36.627Z,31.13
2022-12-24T10:56:07.155Z,30.47
2022-12-24T10:58:35.965Z,30.27
2022-12-24T11:01:05.846Z,29.33
2022-12-24T11:03:36.396Z,29.50
2022-12-24T11:06:10.546Z,28.47
2022-12-24T11:08:42.856Z,26.73
2022-12-24T11:11:13.726Z,25.97
2022-12-24T11:13:45.367Z,24.77
2022-12-24T11:16:25.447Z,23.90
2022-12-24T11:18:55.472Z,22.57
2022-12-24T11:21:27.607Z,21.10
2022-12-24T11:23:58.187Z,21.63
2022-12-24T11:26:29.457Z,21.33
2022-12-24T11:29:07.406Z,19.53
2022-12-24T11:31:38.417Z,19.80
2022-12-24T11:34:20.313Z,20.33
2022-12-24T11:36:48.515Z,21.47
2022-12-24T11:39:21.650Z,21.90
2022-12-24T11:41:58.073Z,23.23
2022-12-24T11:44:28.424Z,23.43
2022-12-24T11:46:58.205Z,24.83
2022-12-24T11:49:29.242Z,25.00
2022-12-24T11:52:19.773Z,25.60
2022-12-24T11:55:02.816Z,26.20
2022-12-24T11:57:39.568Z,26.60
2022-12-24T12:00:11.578Z,27.30
2022-12-24T12:02:44.277Z,26.93
2022-12-24T12:05:18.203Z,27.07
2022-12-24T12:07:51.427Z,27.17
2022-12-24T12:10:24.328Z,27.53
2022-12-24T12:13:00.960Z,27.07
2022-12-24T12:15:35.452Z,27.00
2022-12-24T12:18:10.935Z,27.93
2022-12-24T12:20:42.619Z,28.97
2022-12-24T12:23:17.791Z,28.73
2022-12-24T12:25:52.073Z,28.77
2022-12-24T12:28:24.147Z,29.60
2022-12-24T12:31:02.012Z,31.03
2022-12-24T12:33:39.007Z,32.23
2022-12-24T12:36:09.527Z,33.30
2022-12-24T12:38:37.826Z,33.80
2022-12-24T12:41:24.954Z,35.27
2022-12-24T12:44:13.122Z,36.13
2022-12-24T12:46:53.364Z,36.73
2022-12-24T12:49:33.392Z,36.73
2022-12-24T12:52:10.463Z,37.50
2022-12-24T12:55:03.559Z,37.70
2022-12-24T12:57:35.846Z,39.83
2022-12-24T13:00:08.293Z,39.40
2022-12-24T13:02:52.691Z,39.83
2022-12-24T13:06:03.191Z,40.70
2022-12-24T13:08:58.725Z,41.40
2022-12-24T13:11:55.410Z,41.87
2022-12-24T13:14:48.566Z,43.13
2022-12-24T13:17:33.747Z,42.93
2022-12-24T13:20:25.910Z,42.20
2022-12-24T13:22:59.766Z,43.70
2022-12-24T13:25:37.458Z,41.53
2022-12-24T13:28:33.365Z,42.47
2022-12-24T13:31:25.384Z,41.73
2022-12-24T13:33:55.642Z,41.43
2022-12-24T13:36:24.083Z,39.67
2022-12-24T13:38:54.655Z,40.83
2022-12-24T13:41:59.183Z,41.17
2022-12-24T13:44:33.277Z,43.33
2022-12-24T13:47:32.327Z,43.47
2022-12-24T13:50:20.060Z,44.53
2022-12-24T13:52:53.778Z,45.53
2022-12-24T13:55:23.885Z,46.30
2022-12-24T13:57:59.238Z,46.57
2022-12-24T14:00:42.588Z,47.57
2022-12-24T14:03:27.649Z,47.27
2022-12-24T14:06:00.680Z,48.87
2022-12-24T14:08:34.816Z,49.20
2022-12-24T14:11:10.712Z,49.47
2022-12-24T14:14:10.743Z,50.07
2022-12-24T14:16:52.671Z,51.70
2022-12-24T14:19:24.019Z,52.87
2022-12-24T14:21:58.022Z,51.83
2022-12-24T14:24:29.431Z,52.73
2022-12-24T14:27:07.282Z,52.77
2022-12-24T14:29:44.046Z,54.67
2022-12-24T14:32:16.110Z,55.10
2022-12-24T14:34:44.703Z,56.90
2022-12-24T14:37:14.843Z,57.13
2022-12-24T14:39:47.563Z,58.53
2022-12-24T14:42:31.764Z,58.53
2022-12-24T14:45:06.687Z,59.63
2022-12-24T14:47:42.816Z,60.07
2022-12-24T14:50:37.613Z,60.60
2022-12-24T14:53:19.025Z,61.57
2022-12-24T14:55:48.831Z,62.20
2022-12-24T14:58:25.945Z,62.73
2022-12-24T15:00:56.338Z,63.57
2022-12-24T15:03:26.375Z,63.83
2022-12-24T15:05:57.881Z,64.57
2022-12-24T15:08:32.101Z,64.13
2022-12-24T15:11:04.261Z,62.63
2022-12-24T15:13:37.583Z,62.03
2022-12-24T15:16:09.485Z,61.97
2022-12-24T15:18:46.774Z,60.33
2022-12-24T15:21:20.084Z,58.67
2022-12-24T15:23:50.719Z,57.83
2022-12-24T15:26:27.830Z,57.70
2022-12-24T15:29:03.311Z,58.90
2022-12-24T15:31:33.517Z,58.30
2022-12-24T15:34:01.964Z,58.10
2022-12-24T15:36:34.358Z,58.33
2022-12-24T15:39:05.043Z,57.07
2022-12-24T15:41:59.464Z,55.37
2022-12-24T15:44:33.258Z,54.87
2022-12-24T15:47:02.691Z,53.70
2022-12-24T15:49:33.438Z,53.10
2022-12-24T15:52:06.904Z,53.93
2022-12-24T15:54:35.407Z,56.73
2022-12-24T15:57:14.826Z,57.37
2022-12-24T15:59:44.492Z,57.57
2022-12-24T16:02:40.520Z,58.57
2022-12-24T16:05:32.204Z,58.57
2022-12-24T16:08:08.561Z,57.03
2022-12-24T16:10:40.103Z,58.30
2022-12-24T16:13:17.505Z,57.33
2022-12-24T16:15:53.695Z,56.83
2022-12-24T16:18:26.978Z,54.87
2022-12-24T16:20:57.174Z,55.57
2022-12-24T16:23:28.189Z,54.40
2022-12-24T16:25:56.250Z,53.33
2022-12-24T16:28:24.292Z,52.70
2022-12-24T16:30:55.705Z,51.63
2022-12-24T16:33:24.335Z,50.63
2022-12-24T16:35:52.500Z,51.47
2022-12-24T16:38:20.537Z,49.77
2022-12-24T16:40:48.914Z,50.23
2022-12-24T16:43:34.537Z,48.90
2022-12-24T16:46:07.214Z,47.40
2022-12-24T16:48:38.933Z,46.70
2022-12-24T16:51:07.256Z,46.37
2022-12-24T16:53:35.408Z,46.10
2022-12-24T16:56:03.932Z,44.30
2022-12-24T16:58:33.117Z,44.60
2022-12-24T17:01:10.149Z,44.17
2022-12-24T17:03:38.523Z,44.53
2022-12-24T17:06:09.471Z,44.87
2022-12-24T17:08:37.699Z,44.63
2022-12-24T17:11:05.881Z,43.13
2022-12-24T17:13:34.006Z,43.13
2022-12-24T17:16:07.412Z,41.33
2022-12-24T17:18:40.268Z,41.30
2022-12-24T17:21:10.765Z,42.40
2022-12-24T17:23:41.647Z,42.17
2022-12-24T17:26:14.946Z,42.20
2022-12-24T17:28:44.189Z,42.97
2022-12-24T17:31:15.015Z,43.67
2022-12-24T17:33:44.953Z,44.43
2022-12-24T17:36:13.007Z,45.57
2022-12-24T17:38:41.089Z,46.57
2022-12-24T17:41:11.970Z,46.90
2022-12-24T17:43:40.130Z,47.93
2022-12-24T17:46:09.216Z,48.00
2022-12-24T17:48:37.744Z,48.37
2022-12-24T17:51:09.693Z,48.60
2022-12-24T17:53:39.183Z,47.50
2022-12-24T17:56:08.411Z,46.40
2022-12-24T17:58:36.468Z,46.63
2022-12-24T18:01:05.179Z,46.67
2022-12-24T18:03:34.018Z,45.60
2022-12-24T18:06:04.604Z,47.20
2022-12-24T18:08:34.098Z,45.20
2022-12-24T18:11:10.969Z,45.40
2022-12-24T18:13:39.161Z,44.40
2022-12-24T18:16:15.780Z,44.63
2022-12-24T18:18:43.920Z,42.97
2022-12-24T18:21:12.232Z,43.53
2022-12-24T18:23:43.411Z,41.60
2022-12-24T18:26:12.577Z,41.90
2022-12-24T18:28:41.385Z,40.63
2022-12-24T18:31:12.642Z,40.77
2022-12-24T18:33:41.801Z,41.07
2022-12-24T18:36:10.797Z,40.07
2022-12-24T18:38:39.295Z,40.67
2022-12-24T18:41:10.893Z,40.47
2022-12-24T18:43:39.104Z,40.83
2022-12-24T18:46:10.581Z,40.53
2022-12-24T18:48:38.893Z,40.63
2022-12-24T18:51:07.909Z,40.53
2022-12-24T18:53:36.326Z,40.70
2022-12-24T18:56:06.066Z,40.93
2022-12-24T18:58:37.754Z,41.93
2022-12-24T19:01:12.238Z,40.77
2022-12-24T19:03:40.503Z,41.33
2022-12-24T19:06:09.105Z,41.87
2022-12-24T19:11:26.182Z,43.13
2022-12-24T19:13:55.663Z,42.73
2022-12-24T19:16:24.130Z,43.50
2022-12-24T19:18:52.255Z,43.33
2022-12-24T19:21:20.405Z,42.50
2022-12-24T19:23:49.008Z,42.00
2022-12-24T19:26:18.980Z,42.10
2022-12-24T19:28:47.900Z,41.80
2022-12-24T19:31:21.494Z,40.70
2022-12-24T19:33:51.699Z,41.70
2022-12-24T19:36:24.714Z,42.10
2022-12-24T19:38:52.870Z,41.77
2022-12-24T19:41:23.457Z,41.13
2022-12-24T19:43:54.229Z,40.97
2022-12-24T19:46:26.224Z,40.57
2022-12-24T19:48:56.600Z,39.63
2022-12-24T19:51:27.024Z,39.60
2022-12-24T19:53:55.962Z,39.53
2022-12-24T19:56:26.140Z,38.50
2022-12-24T19:58:55.554Z,39.00
2022-12-24T20:01:26.925Z,39.70
2022-12-24T20:03:56.186Z,38.67
2022-12-24T20:06:27.323Z,38.40
2022-12-24T20:08:59.380Z,39.50
2022-12-24T20:11:28.012Z,37.97
2022-12-24T20:13:58.562Z,39.10
2022-12-24T20:16:29.549Z,38.33
2022-12-24T20:18:59.597Z,39.27
2022-12-24T20:21:28.569Z,38.60
2022-12-24T20:23:57.210Z,37.37
2022-12-24T20:26:27.696Z,38.83
2022-12-24T20:28:56.268Z,38.17
2022-12-24T20:31:26.203Z,37.40
2022-12-24T20:33:56.634Z,37.47
2022-12-24T20:36:25.984Z,37.80
2022-12-24T20:38:54.400Z,36.30
2022-12-24T20:41:24.258Z,37.63
2022-12-24T20:43:52.471Z,36.03
2022-12-24T20:46:22.614Z,37.43
2022-12-24T20:48:51.039Z,36.43
2022-12-24T20:51:24.975Z,37.10
2022-12-24T20:53:54.583Z,38.40
2022-12-24T20:56:23.224Z,37.20
2022-12-24T20:58:51.644Z,37.17
2022-12-24T21:01:24.254Z,37.20
2022-12-24T21:03:53.705Z,37.40
2022-12-24T21:06:24.103Z,36.13
2022-12-24T21:08:52.920Z,37.80
2022-12-24T21:11:39.561Z,36.90
2022-12-24T21:14:07.989Z,36.23
2022-12-24T21:16:37.567Z,37.00
2022-12-24T21:19:06.632Z,36.40
2022-12-24T21:21:37.021Z,37.00
2022-12-24T21:24:06.197Z,37.17
2022-12-24T21:26:34.934Z,37.00
2022-12-24T21:29:04.738Z,37.47
2022-12-24T21:31:33.576Z,36.30
2022-12-24T21:34:01.728Z,36.80
2022-12-24T21:36:29.802Z,37.77
2022-12-24T21:38:59.242Z,39.07
2022-12-24T21:41:28.122Z,37.37
2022-12-24T21:43:56.308Z,38.33
2022-12-24T21:46:25.894Z,38.30
2022-12-24T21:49:12.858Z,38.83
2022-12-24T21:51:43.455Z,39.37
2022-12-24T21:54:23.909Z,37.07
2022-12-24T21:57:09.927Z,38.50
2022-12-24T21:59:38.159Z,37.33
2022-12-24T22:02:06.498Z,38.23
2022-12-24T22:04:35.198Z,36.83
2022-12-24T22:07:25.982Z,37.03
2022-12-24T22:10:13.182Z,37.80
2022-12-24T22:12:41.187Z,37.23
2022-12-24T22:15:10.238Z,38.60
2022-12-24T22:17:38.294Z,37.80
2022-12-24T22:20:07.825Z,37.70
2022-12-24T22:22:35.886Z,39.97
2022-12-24T22:25:05.866Z,40.43
2022-12-24T22:27:34.004Z,40.97
2022-12-24T22:30:02.085Z,41.17
2022-12-24T22:32:30.146Z,40.67
2022-12-24T22:34:58.273Z,42.53
2022-12-24T22:37:26.363Z,40.67
2022-12-24T22:39:54.550Z,42.90
2022-12-24T22:42:23.979Z,42.10
2022-12-24T22:44:52.178Z,41.97
2022-12-24T22:47:20.311Z,42.77
2022-12-24T22:49:49.309Z,42.97
2022-12-24T22:52:17.535Z,45.10
2022-12-24T22:54:45.739Z,45.00
2022-12-24T22:57:13.818Z,46.53
2022-12-24T22:59:43.417Z,44.33
2022-12-24T23:02:12.215Z,46.03
2022-12-24T23:04:41.867Z,45.87
2022-12-24T23:07:11.974Z,45.87
2022-12-24T23:09:40.437Z,45.63
2022-12-24T23:12:09.142Z,43.43
2022-12-24T23:14:54.615Z,45.10
2022-12-24T23:17:24.034Z,42.97
2022-12-24T23:19:52.095Z,40.43
2022-12-24T23:22:20.253Z,41.00
2022-12-24T23:24:48.433Z,40.27
2022-12-24T23:27:16.535Z,39.63
2022-12-24T23:29:44.649Z,39.33
2022-12-24T23:32:12.749Z,38.33
2022-12-24T23:34:42.281Z,38.33
2022-12-24T23:37:10.402Z,40.03
2022-12-24T23:39:38.492Z,38.87
2022-12-24T23:42:06.723Z,40.23
2022-12-24T23:44:34.797Z,38.97
2022-12-24T23:47:02.937Z,37.80
2022-12-24T23:49:31.072Z,38.83
2022-12-24T23:52:01.588Z,38.00
2022-12-24T23:54:30.788Z,38.40
2022-12-24T23:56:58.904Z,39.33
2022-12-24T23:59:27.079Z,40.00
